createdAt,value
2022-10-20T00:05:33.442Z,10.80
2022-10-20T00:12:35.636Z,10.70
2022-10-20T00:19:37.461Z,10.54
2022-10-20T00:26:39.011Z,10.48
2022-10-20T00:33:40.587Z,10.43
2022-10-20T00:40:42.160Z,10.35
2022-10-20T00:47:48.831Z,10.29
2022-10-20T00:54:50.402Z,10.30
2022-10-20T01:01:52.052Z,10.26
2022-10-20T01:08:54.068Z,10.19
2022-10-20T01:16:14.516Z,10.16
2022-10-20T01:23:45.204Z,10.06
2022-10-20T01:30:48.191Z,9.97
2022-10-20T01:38:36.850Z,9.97
2022-10-20T01:45:39.597Z,9.88
2022-10-20T01:52:41.132Z,9.86
2022-10-20T01:59:45.318Z,9.84
2022-10-20T02:06:49.851Z,9.82
2022-10-20T02:13:51.731Z,9.78
2022-10-20T02:20:54.751Z,9.73
2022-10-20T02:27:56.440Z,9.68
2022-10-20T02:34:58.038Z,9.65
2022-10-20T02:41:59.597Z,9.59
2022-10-20T02:49:01.154Z,9.52
2022-10-20T02:56:02.806Z,9.45
2022-10-20T03:03:04.378Z,9.42
2022-10-20T03:10:06.452Z,9.35
2022-10-20T03:17:08.341Z,9.34
2022-10-20T03:24:09.892Z,9.29
2022-10-20T03:31:11.529Z,9.23
2022-10-20T03:38:13.096Z,9.18
2022-10-20T03:45:17.778Z,9.14
2022-10-20T03:52:20.282Z,9.08
2022-10-20T03:59:23.524Z,9.01
2022-10-20T04:06:27.156Z,8.94
2022-10-20T04:13:28.707Z,8.95
2022-10-20T04:20:30.247Z,8.93
2022-10-20T04:27:31.780Z,8.84
2022-10-20T04:34:33.349Z,8.80
2022-10-20T04:41:35.026Z,8.76
2022-10-20T04:48:37.664Z,8.71
2022-10-20T04:55:39.202Z,8.67
2022-10-20T05:02:40.780Z,8.62
2022-10-20T05:09:42.347Z,8.60
2022-10-20T05:16:43.891Z,8.56
2022-10-20T05:23:45.479Z,8.54
2022-10-20T05:30:47.229Z,8.47
2022-10-20T05:37:48.767Z,8.46
2022-10-20T05:44:50.335Z,8.46
2022-10-20T05:51:51.911Z,8.42
2022-10-20T05:58:53.745Z,8.32
2022-10-20T06:05:59.185Z,8.27
2022-10-20T06:13:00.725Z,8.31
2022-10-20T06:20:02.349Z,8.27
2022-10-20T06:27:04.015Z,8.35
2022-10-20T06:34:12.513Z,8.34
2022-10-20T06:41:15.599Z,8.38
2022-10-20T06:48:17.200Z,8.66
2022-10-20T06:55:18.839Z,8.83
2022-10-20T07:02:21.803Z,9.21
2022-10-20T07:09:23.344Z,9.48
2022-10-20T07:16:25.832Z,9.69
2022-10-20T07:23:28.020Z,9.99
2022-10-20T07:30:29.566Z,10.33
2022-10-20T07:37:31.164Z,10.68
2022-10-20T07:44:32.764Z,10.86
2022-10-20T07:51:34.655Z,11.27
2022-10-20T07:58:36.491Z,11.55
2022-10-20T08:05:38.071Z,12.06
2022-10-20T08:12:39.714Z,12.38
2022-10-20T08:19:45.450Z,12.99
2022-10-20T08:26:47.044Z,13.40
2022-10-20T08:33:52.268Z,14.25
2022-10-20T08:40:54.388Z,14.20
2022-10-20T08:47:57.430Z,14.36
2022-10-20T08:54:58.990Z,14.92
2022-10-20T09:02:00.652Z,15.21
2022-10-20T09:09:02.312Z,15.12
2022-10-20T09:16:08.220Z,15.56
2022-10-20T09:23:39.953Z,15.85
2022-10-20T09:30:41.932Z,16.01
2022-10-20T09:37:44.163Z,16.41
2022-10-20T09:44:52.174Z,16.28
2022-10-20T09:51:54.041Z,16.49
2022-10-20T09:58:56.368Z,16.60
2022-10-20T10:06:19.967Z,16.98
2022-10-20T10:13:25.128Z,18.02
2022-10-20T10:20:49.470Z,18.32
2022-10-20T10:28:06.922Z,18.70
2022-10-20T10:35:19.822Z,19.32
2022-10-20T10:42:33.196Z,20.05
2022-10-20T10:50:28.977Z,19.32
2022-10-20T10:57:51.661Z,19.58
2022-10-20T11:05:20.787Z,19.96
2022-10-20T11:12:37.525Z,20.20
2022-10-20T11:20:01.863Z,20.50
2022-10-20T11:27:14.289Z,21.62
2022-10-20T11:34:21.239Z,22.24
2022-10-20T11:41:24.947Z,22.19
2022-10-20T11:48:30.593Z,22.13
2022-10-20T11:55:44.085Z,21.32
2022-10-20T12:02:58.604Z,20.23
2022-10-20T12:10:28.976Z,19.03
2022-10-20T12:17:34.483Z,18.55
2022-10-20T12:24:54.404Z,18.02
2022-10-20T12:32:33.717Z,17.76
2022-10-20T12:39:35.446Z,17.56
2022-10-20T12:46:40.636Z,17.48
2022-10-20T12:53:42.201Z,17.50
2022-10-20T13:00:46.579Z,17.47
2022-10-20T13:07:48.183Z,17.26
2022-10-20T13:14:55.480Z,17.14
2022-10-20T13:21:57.051Z,16.90
2022-10-20T13:29:00.215Z,16.76
2022-10-20T13:36:32.628Z,16.69
2022-10-20T13:43:36.874Z,16.69
2022-10-20T13:50:43.323Z,16.74
2022-10-20T13:57:55.430Z,16.65
2022-10-20T14:05:06.908Z,16.61
2022-10-20T14:12:11.884Z,16.60
2022-10-20T14:19:13.588Z,16.38
2022-10-20T14:26:19.947Z,16.35
2022-10-20T14:33:21.506Z,16.46
2022-10-20T14:40:25.573Z,16.39
2022-10-20T14:47:39.354Z,16.29
2022-10-20T14:54:41.310Z,16.16
2022-10-20T15:02:13.212Z,16.02
2022-10-20T15:09:26.707Z,16.02
2022-10-20T15:16:54.783Z,15.92
2022-10-20T15:23:56.407Z,15.94
2022-10-20T15:31:01.222Z,15.84
2022-10-20T15:38:02.998Z,15.82
2022-10-20T15:45:20.512Z,15.78
2022-10-20T15:52:22.177Z,15.58
2022-10-20T15:59:24.019Z,15.42
2022-10-20T16:06:25.660Z,15.35
2022-10-20T16:13:27.503Z,15.14
2022-10-20T16:20:29.119Z,14.99
2022-10-20T16:27:31.191Z,14.87
2022-10-20T16:34:32.918Z,14.77
2022-10-20T16:41:34.592Z,14.51
2022-10-20T16:48:37.845Z,14.51
2022-10-20T16:55:39.701Z,14.38
2022-10-20T17:02:43.983Z,14.34
2022-10-20T17:09:45.602Z,14.12
2022-10-20T17:16:47.329Z,14.03
2022-10-20T17:23:48.914Z,14.01
2022-10-20T17:30:52.946Z,13.70
2022-10-20T17:37:54.549Z,13.71
2022-10-20T17:44:56.122Z,13.61
2022-10-20T17:51:57.708Z,13.47
2022-10-20T17:58:59.902Z,13.28
2022-10-20T18:06:11.859Z,13.27
2022-10-20T18:13:13.482Z,13.22
2022-10-20T18:20:15.107Z,13.09
2022-10-20T18:27:16.662Z,12.98
2022-10-20T18:34:20.516Z,12.84
2022-10-20T18:41:30.141Z,12.83
2022-10-20T18:48:31.894Z,12.75
2022-10-20T18:55:33.471Z,12.65
2022-10-20T19:02:35.490Z,12.52
2022-10-20T19:09:37.128Z,12.52
2022-10-20T19:16:39.296Z,12.51
2022-10-20T19:23:45.907Z,12.42
2022-10-20T19:30:47.489Z,12.39
2022-10-20T19:37:49.072Z,12.35
2022-10-20T19:44:50.803Z,12.27
2022-10-20T19:51:52.583Z,12.34
2022-10-20T19:58:54.324Z,12.29
2022-10-20T20:06:03.366Z,12.30
2022-10-20T20:13:05.107Z,12.23
2022-10-20T20:20:07.240Z,12.20
2022-10-20T20:27:09.000Z,12.16
2022-10-20T20:34:10.631Z,12.14
2022-10-20T20:41:14.160Z,12.07
2022-10-20T20:48:15.811Z,12.05
2022-10-20T20:55:17.454Z,11.99
2022-10-20T21:02:19.049Z,11.88
2022-10-20T21:09:20.703Z,11.98
2022-10-20T21:16:25.674Z,11.86
2022-10-20T21:23:27.247Z,11.79
2022-10-20T21:30:28.867Z,11.78
2022-10-20T21:37:30.462Z,11.78
2022-10-20T21:44:32.015Z,11.71
2022-10-20T21:51:35.231Z,11.70
2022-10-20T21:58:37.261Z,11.77
2022-10-20T22:05:38.808Z,11.85
2022-10-20T22:12:40.413Z,11.80
2022-10-20T22:19:41.995Z,11.82
2022-10-20T22:26:43.562Z,11.80
2022-10-20T22:33:45.142Z,11.84
2022-10-20T22:40:46.691Z,11.83
2022-10-20T22:47:48.257Z,11.82
2022-10-20T22:54:49.820Z,11.89
2022-10-20T23:01:51.467Z,11.80
2022-10-20T23:08:54.086Z,11.76
2022-10-20T23:15:55.679Z,11.65
2022-10-20T23:22:57.230Z,11.57
2022-10-20T23:29:58.975Z,11.49
2022-10-20T23:37:00.555Z,11.48
2022-10-20T23:44:02.127Z,11.47
2022-10-20T23:51:04.353Z,11.39
2022-10-20T23:58:05.899Z,11.29
